sensor_id;sensor_type;location;lat;lon;timestamp;pressure;altitude;pressure_sealevel;temperature;humidity
49341;BME280;35209;51.050;13.678;2023-04-29T00:03:23;99418.59;;;10.22;100.00
49341;BME280;35209;51.050;13.678;2023-04-29T00:08:29;99412.34;;;10.26;100.00
49341;BME280;35209;51.050;13.678;2023-04-29T00:13:31;99414.84;;;10.51;100.00
49341;BME280;35209;51.050;13.678;2023-04-29T00:18:33;99413.28;;;10.25;100.00
49341;BME280;35209;51.050;13.678;2023-04-29T00:23:34;99399.81;;;10.11;100.00
49341;BME280;35209;51.050;13.678;2023-04-29T00:28:36;99399.94;;;10.08;100.00
49341;BME280;35209;51.050;13.678;2023-04-29T00:33:38;99395.72;;;10.04;100.00
49341;BME280;35209;51.050;13.678;2023-04-29T00:38:41;99393.94;;;10.04;100.00
49341;BME280;35209;51.050;13.678;2023-04-29T00:43:43;99391.09;;;10.10;100.00
49341;BME280;35209;51.050;13.678;2023-04-29T00:48:44;99390.81;;;10.17;100.00
49341;BME280;35209;51.050;13.678;2023-04-29T00:53:46;99390.00;;;10.38;100.00
49341;BME280;35209;51.050;13.678;2023-04-29T00:58:50;99400.47;;;10.60;100.00
49341;BME280;35209;51.050;13.678;2023-04-29T01:03:53;99390.03;;;10.58;100.00
49341;BME280;35209;51.050;13.678;2023-04-29T01:09:01;99388.88;;;10.44;100.00
49341;BME280;35209;51.050;13.678;2023-04-29T01:14:05;99384.53;;;10.21;100.00
49341;BME280;35209;51.050;13.678;2023-04-29T01:20:01;99389.41;;;10.08;100.00
49341;BME280;35209;51.050;13.678;2023-04-29T01:24:38;99389.91;;;10.18;100.00
49341;BME280;35209;51.050;13.678;2023-04-29T01:30:20;99393.34;;;10.42;100.00
49341;BME280;35209;51.050;13.678;2023-04-29T01:35:49;99405.28;;;10.49;100.00
49341;BME280;35209;51.050;13.678;2023-04-29T01:41:10;99415.38;;;10.16;100.00
49341;BME280;35209;51.050;13.678;2023-04-29T01:46:16;99415.56;;;10.11;100.00
49341;BME280;35209;51.050;13.678;2023-04-29T01:51:19;99407.22;;;10.23;100.00
49341;BME280;35209;51.050;13.678;2023-04-29T01:56:22;99412.91;;;10.34;100.00
49341;BME280;35209;51.050;13.678;2023-04-29T02:01:35;99417.91;;;10.41;100.00
49341;BME280;35209;51.050;13.678;2023-04-29T02:06:37;99424.59;;;10.27;100.00
49341;BME280;35209;51.050;13.678;2023-04-29T02:11:39;99429.56;;;10.11;100.00
49341;BME280;35209;51.050;13.678;2023-04-29T02:16:45;99421.78;;;10.52;100.00
49341;BME280;35209;51.050;13.678;2023-04-29T02:21:48;99421.38;;;10.63;100.00
49341;BME280;35209;51.050;13.678;2023-04-29T02:26:51;99411.09;;;10.98;100.00
49341;BME280;35209;51.050;13.678;2023-04-29T02:31:54;99403.59;;;11.29;100.00
49341;BME280;35209;51.050;13.678;2023-04-29T02:36:56;99398.13;;;11.34;100.00
49341;BME280;35209;51.050;13.678;2023-04-29T02:41:57;99398.88;;;11.17;100.00
49341;BME280;35209;51.050;13.678;2023-04-29T02:46:59;99392.66;;;10.99;100.00
49341;BME280;35209;51.050;13.678;2023-04-29T02:52:01;99408.19;;;10.85;100.00
49341;BME280;35209;51.050;13.678;2023-04-29T02:57:03;99409.28;;;10.79;100.00
49341;BME280;35209;51.050;13.678;2023-04-29T03:02:05;99403.81;;;10.84;100.00
49341;BME280;35209;51.050;13.678;2023-04-29T03:07:07;99403.44;;;10.73;100.00
49341;BME280;35209;51.050;13.678;2023-04-29T03:12:10;99390.59;;;10.65;100.00
49341;BME280;35209;51.050;13.678;2023-04-29T03:17:12;99379.00;;;11.10;100.00
49341;BME280;35209;51.050;13.678;2023-04-29T03:22:16;99379.38;;;10.82;100.00
49341;BME280;35209;51.050;13.678;2023-04-29T03:27:17;99390.41;;;10.70;100.00
49341;BME280;35209;51.050;13.678;2023-04-29T03:32:20;99391.28;;;10.91;100.00
49341;BME280;35209;51.050;13.678;2023-04-29T03:37:22;99383.63;;;11.05;100.00
49341;BME280;35209;51.050;13.678;2023-04-29T03:42:30;99380.50;;;10.76;100.00
49341;BME280;35209;51.050;13.678;2023-04-29T03:47:32;99380.63;;;10.73;100.00
49341;BME280;35209;51.050;13.678;2023-04-29T03:52:34;99375.63;;;10.88;100.00
49341;BME280;35209;51.050;13.678;2023-04-29T03:57:44;99383.34;;;10.72;100.00
49341;BME280;35209;51.050;13.678;2023-04-29T04:02:47;99384.91;;;10.76;100.00
49341;BME280;35209;51.050;13.678;2023-04-29T04:07:51;99381.94;;;11.04;100.00
49341;BME280;35209;51.050;13.678;2023-04-29T04:13:19;99390.16;;;10.96;100.00
49341;BME280;35209;51.050;13.678;2023-04-29T04:18:21;99379.31;;;11.04;100.00
49341;BME280;35209;51.050;13.678;2023-04-29T04:23:24;99389.63;;;10.88;100.00
49341;BME280;35209;51.050;13.678;2023-04-29T04:28:28;99394.31;;;10.81;100.00
49341;BME280;35209;51.050;13.678;2023-04-29T04:33:35;99391.34;;;10.89;100.00
49341;BME280;35209;51.050;13.678;2023-04-29T04:38:37;99394.63;;;10.94;100.00
49341;BME280;35209;51.050;13.678;2023-04-29T04:43:44;99400.00;;;10.91;100.00
49341;BME280;35209;51.050;13.678;2023-04-29T04:49:02;99391.38;;;11.47;100.00
49341;BME280;35209;51.050;13.678;2023-04-29T04:54:08;99398.13;;;11.34;100.00
49341;BME280;35209;51.050;13.678;2023-04-29T04:59:11;99405.38;;;11.29;100.00
49341;BME280;35209;51.050;13.678;2023-04-29T05:04:14;99411.81;;;11.22;100.00
49341;BME280;35209;51.050;13.678;2023-04-29T05:09:16;99417.38;;;11.16;100.00
49341;BME280;35209;51.050;13.678;2023-04-29T05:14:19;99407.81;;;11.13;100.00
49341;BME280;35209;51.050;13.678;2023-04-29T05:19:21;99404.44;;;11.30;100.00
49341;BME280;35209;51.050;13.678;2023-04-29T05:24:23;99415.38;;;11.79;100.00
49341;BME280;35209;51.050;13.678;2023-04-29T05:29:25;99416.19;;;12.00;100.00
49341;BME280;35209;51.050;13.678;2023-04-29T05:34:32;99423.44;;;12.14;100.00
49341;BME280;35209;51.050;13.678;2023-04-29T05:39:34;99430.84;;;12.42;100.00
49341;BME280;35209;51.050;13.678;2023-04-29T05:44:43;99421.31;;;12.74;100.00
49341;BME280;35209;51.050;13.678;2023-04-29T05:49:45;99428.47;;;12.72;100.00
49341;BME280;35209;51.050;13.678;2023-04-29T05:54:47;99433.91;;;12.86;100.00
49341;BME280;35209;51.050;13.678;2023-04-29T05:59:49;99439.50;;;12.80;100.00
49341;BME280;35209;51.050;13.678;2023-04-29T06:04:51;99439.19;;;12.86;100.00
49341;BME280;35209;51.050;13.678;2023-04-29T06:10:19;99443.50;;;13.04;100.00
49341;BME280;35209;51.050;13.678;2023-04-29T06:15:23;99445.22;;;13.23;100.00
49341;BME280;35209;51.050;13.678;2023-04-29T06:20:25;99450.22;;;13.29;100.00
49341;BME280;35209;51.050;13.678;2023-04-29T06:25:27;99457.94;;;13.32;100.00
49341;BME280;35209;51.050;13.678;2023-04-29T06:30:29;99458.75;;;13.34;100.00
49341;BME280;35209;51.050;13.678;2023-04-29T06:35:38;99465.19;;;13.61;100.00
49341;BME280;35209;51.050;13.678;2023-04-29T06:40:41;99470.22;;;13.66;100.00
49341;BME280;35209;51.050;13.678;2023-04-29T06:46:01;99471.47;;;13.59;100.00
49341;BME280;35209;51.050;13.678;2023-04-29T06:51:12;99474.47;;;13.35;100.00
49341;BME280;35209;51.050;13.678;2023-04-29T06:56:14;99476.97;;;13.21;100.00
49341;BME280;35209;51.050;13.678;2023-04-29T07:01:17;99475.16;;;13.22;100.00
49341;BME280;35209;51.050;13.678;2023-04-29T07:06:19;99476.75;;;13.26;100.00
49341;BME280;35209;51.050;13.678;2023-04-29T07:11:21;99490.03;;;13.24;100.00
49341;BME280;35209;51.050;13.678;2023-04-29T07:16:25;99496.91;;;13.09;100.00
49341;BME280;35209;51.050;13.678;2023-04-29T07:21:28;99497.91;;;12.90;100.00
49341;BME280;35209;51.050;13.678;2023-04-29T07:26:31;99491.41;;;12.79;100.00
49341;BME280;35209;51.050;13.678;2023-04-29T07:31:33;99492.53;;;12.74;100.00
49341;BME280;35209;51.050;13.678;2023-04-29T07:36:38;99505.47;;;12.97;100.00
49341;BME280;35209;51.050;13.678;2023-04-29T07:41:40;99513.06;;;13.03;100.00
49341;BME280;35209;51.050;13.678;2023-04-29T07:46:42;99512.22;;;13.20;100.00
49341;BME280;35209;51.050;13.678;2023-04-29T07:51:44;99516.53;;;13.21;100.00
49341;BME280;35209;51.050;13.678;2023-04-29T07:56:45;99527.97;;;13.39;100.00
49341;BME280;35209;51.050;13.678;2023-04-29T08:01:47;99534.13;;;13.40;100.00
49341;BME280;35209;51.050;13.678;2023-04-29T08:06:49;99543.56;;;13.61;100.00
49341;BME280;35209;51.050;13.678;2023-04-29T08:11:51;99546.06;;;13.47;100.00
49341;BME280;35209;51.050;13.678;2023-04-29T08:16:52;99544.97;;;13.68;100.00
49341;BME280;35209;51.050;13.678;2023-04-29T08:21:55;99551.59;;;13.42;100.00
49341;BME280;35209;51.050;13.678;2023-04-29T08:26:57;99556.38;;;13.17;100.00
49341;BME280;35209;51.050;13.678;2023-04-29T08:31:59;99564.56;;;13.29;100.00
49341;BME280;35209;51.050;13.678;2023-04-29T08:37:02;99566.72;;;12.85;100.00
49341;BME280;35209;51.050;13.678;2023-04-29T08:42:10;99576.84;;;13.11;100.00
49341;BME280;35209;51.050;13.678;2023-04-29T08:47:12;99575.63;;;12.82;100.00
49341;BME280;35209;51.050;13.678;2023-04-29T08:52:15;99578.50;;;12.59;100.00
49341;BME280;35209;51.050;13.678;2023-04-29T08:57:17;99591.19;;;12.70;100.00
49341;BME280;35209;51.050;13.678;2023-04-29T09:02:19;99599.03;;;12.71;100.00
49341;BME280;35209;51.050;13.678;2023-04-29T09:07:22;99598.81;;;12.76;100.00
49341;BME280;35209;51.050;13.678;2023-04-29T09:12:24;99593.00;;;12.86;100.00
49341;BME280;35209;51.050;13.678;2023-04-29T09:17:46;99610.06;;;12.60;100.00
49341;BME280;35209;51.050;13.678;2023-04-29T09:22:50;99618.28;;;12.54;100.00
49341;BME280;35209;51.050;13.678;2023-04-29T09:27:53;99614.84;;;12.52;100.00
49341;BME280;35209;51.050;13.678;2023-04-29T09:33:08;99626.53;;;12.47;100.00
49341;BME280;35209;51.050;13.678;2023-04-29T09:38:14;99635.22;;;12.86;100.00
49341;BME280;35209;51.050;13.678;2023-04-29T09:43:17;99639.72;;;12.66;100.00
49341;BME280;35209;51.050;13.678;2023-04-29T09:48:19;99636.19;;;12.67;100.00
49341;BME280;35209;51.050;13.678;2023-04-29T09:53:28;99636.19;;;12.67;100.00
49341;BME280;35209;51.050;13.678;2023-04-29T09:58:34;99643.72;;;12.93;100.00
49341;BME280;35209;51.050;13.678;2023-04-29T10:03:40;99648.53;;;13.02;100.00
49341;BME280;35209;51.050;13.678;2023-04-29T10:08:43;99650.88;;;13.08;100.00
49341;BME280;35209;51.050;13.678;2023-04-29T10:13:49;99648.78;;;13.34;100.00
49341;BME280;35209;51.050;13.678;2023-04-29T10:18:53;99658.09;;;13.41;100.00
49341;BME280;35209;51.050;13.678;2023-04-29T10:23:58;99656.28;;;13.60;100.00
49341;BME280;35209;51.050;13.678;2023-04-29T10:29:00;99659.84;;;13.59;100.00
49341;BME280;35209;51.050;13.678;2023-04-29T10:34:04;99664.97;;;13.80;99.31
49341;BME280;35209;51.050;13.678;2023-04-29T10:39:10;99668.31;;;13.66;100.00
49341;BME280;35209;51.050;13.678;2023-04-29T10:44:14;99672.50;;;13.70;95.95
49341;BME280;35209;51.050;13.678;2023-04-29T10:49:16;99678.28;;;13.96;96.33
49341;BME280;35209;51.050;13.678;2023-04-29T10:54:18;99688.59;;;13.66;95.15
49341;BME280;35209;51.050;13.678;2023-04-29T11:04:33;99685.31;;;13.60;95.75
49341;BME280;35209;51.050;13.678;2023-04-29T11:09:35;99694.81;;;13.82;89.98
49341;BME280;35209;51.050;13.678;2023-04-29T11:19:51;99704.22;;;14.05;92.71
49341;BME280;35209;51.050;13.678;2023-04-29T11:24:59;99699.28;;;14.32;88.81
49341;BME280;35209;51.050;13.678;2023-04-29T11:30:02;99710.31;;;14.40;84.76
49341;BME280;35209;51.050;13.678;2023-04-29T11:35:13;99713.53;;;14.12;84.14
49341;BME280;35209;51.050;13.678;2023-04-29T11:40:15;99716.41;;;14.07;87.16
49341;BME280;35209;51.050;13.678;2023-04-29T11:45:18;99713.94;;;14.22;85.15
49341;BME280;35209;51.050;13.678;2023-04-29T11:50:19;99720.38;;;14.16;87.97
49341;BME280;35209;51.050;13.678;2023-04-29T11:55:21;99731.81;;;14.17;87.44
49341;BME280;35209;51.050;13.678;2023-04-29T12:00:23;99733.94;;;14.43;84.92
49341;BME280;35209;51.050;13.678;2023-04-29T12:05:28;99727.56;;;14.47;84.70
49341;BME280;35209;51.050;13.678;2023-04-29T12:10:31;99739.56;;;14.02;87.08
49341;BME280;35209;51.050;13.678;2023-04-29T12:15:33;99746.56;;;13.69;87.39
49341;BME280;35209;51.050;13.678;2023-04-29T12:20:36;99772.75;;;13.37;89.04
49341;BME280;35209;51.050;13.678;2023-04-29T12:25:40;99771.91;;;12.97;93.14
49341;BME280;35209;51.050;13.678;2023-04-29T12:30:48;99776.03;;;13.22;91.36
49341;BME280;35209;51.050;13.678;2023-04-29T12:35:53;99792.34;;;12.92;94.11
49341;BME280;35209;51.050;13.678;2023-04-29T12:40:58;99791.50;;;12.92;96.62
49341;BME280;35209;51.050;13.678;2023-04-29T12:46:01;99801.59;;;13.02;92.12
49341;BME280;35209;51.050;13.678;2023-04-29T12:51:04;99809.06;;;12.93;90.82
49341;BME280;35209;51.050;13.678;2023-04-29T12:56:06;99815.34;;;12.70;93.61
49341;BME280;35209;51.050;13.678;2023-04-29T13:01:08;99821.69;;;12.45;94.68
49341;BME280;35209;51.050;13.678;2023-04-29T13:06:10;99830.56;;;12.22;97.56
49341;BME280;35209;51.050;13.678;2023-04-29T13:11:12;99832.66;;;12.14;99.97
49341;BME280;35209;51.050;13.678;2023-04-29T13:16:14;99834.19;;;12.20;96.58
49341;BME280;35209;51.050;13.678;2023-04-29T13:21:16;99844.06;;;12.15;98.54
49341;BME280;35209;51.050;13.678;2023-04-29T13:26:18;99835.78;;;12.02;97.72
49341;BME280;35209;51.050;13.678;2023-04-29T13:31:19;99848.44;;;11.70;100.00
49341;BME280;35209;51.050;13.678;2023-04-29T13:36:21;99858.84;;;11.51;100.00
49341;BME280;35209;51.050;13.678;2023-04-29T13:41:23;99865.94;;;11.49;100.00
49341;BME280;35209;51.050;13.678;2023-04-29T13:46:27;99861.91;;;10.92;100.00
49341;BME280;35209;51.050;13.678;2023-04-29T13:51:32;99863.81;;;11.12;100.00
49341;BME280;35209;51.050;13.678;2023-04-29T13:56:53;99871.34;;;10.98;100.00
49341;BME280;35209;51.050;13.678;2023-04-29T14:02:15;99869.59;;;10.98;100.00
49341;BME280;35209;51.050;13.678;2023-04-29T14:07:26;99875.41;;;11.06;100.00
49341;BME280;35209;51.050;13.678;2023-04-29T14:12:28;99881.38;;;11.35;100.00
49341;BME280;35209;51.050;13.678;2023-04-29T14:17:30;99887.91;;;11.25;100.00
49341;BME280;35209;51.050;13.678;2023-04-29T14:22:31;99904.38;;;11.30;100.00
49341;BME280;35209;51.050;13.678;2023-04-29T14:27:33;99903.44;;;11.07;100.00
49341;BME280;35209;51.050;13.678;2023-04-29T14:32:37;99896.19;;;11.14;100.00
49341;BME280;35209;51.050;13.678;2023-04-29T14:37:39;99894.22;;;11.19;100.00
49341;BME280;35209;51.050;13.678;2023-04-29T14:42:40;99904.22;;;11.34;100.00
49341;BME280;35209;51.050;13.678;2023-04-29T14:47:42;99906.59;;;11.41;100.00
49341;BME280;35209;51.050;13.678;2023-04-29T14:52:44;99916.00;;;11.48;100.00
49341;BME280;35209;51.050;13.678;2023-04-29T14:57:46;99918.28;;;11.57;100.00
49341;BME280;35209;51.050;13.678;2023-04-29T15:02:48;99920.13;;;11.78;99.27
49341;BME280;35209;51.050;13.678;2023-04-29T15:07:51;99925.41;;;11.77;99.01
49341;BME280;35209;51.050;13.678;2023-04-29T15:12:53;99922.00;;;11.75;97.53
49341;BME280;35209;51.050;13.678;2023-04-29T15:17:55;99928.78;;;11.80;97.56
49341;BME280;35209;51.050;13.678;2023-04-29T15:22:57;99934.69;;;11.63;99.65
49341;BME280;35209;51.050;13.678;2023-04-29T15:28:00;99928.97;;;11.99;95.50
49341;BME280;35209;51.050;13.678;2023-04-29T15:33:02;99942.38;;;11.93;96.50
49341;BME280;35209;51.050;13.678;2023-04-29T15:38:05;99944.25;;;11.91;95.40
49341;BME280;35209;51.050;13.678;2023-04-29T15:43:07;99948.94;;;11.81;98.19
49341;BME280;35209;51.050;13.678;2023-04-29T15:48:09;99951.16;;;11.94;97.18
49341;BME280;35209;51.050;13.678;2023-04-29T15:53:11;99954.53;;;11.97;96.85
49341;BME280;35209;51.050;13.678;2023-04-29T15:58:13;99953.50;;;11.78;97.55
49341;BME280;35209;51.050;13.678;2023-04-29T16:03:15;99954.53;;;11.74;97.87
49341;BME280;35209;51.050;13.678;2023-04-29T16:08:17;99962.53;;;11.94;97.12
49341;BME280;35209;51.050;13.678;2023-04-29T16:13:20;99967.72;;;11.72;98.72
49341;BME280;35209;51.050;13.678;2023-04-29T16:18:22;99967.56;;;11.77;99.03
49341;BME280;35209;51.050;13.678;2023-04-29T16:23:24;99974.63;;;12.00;95.88
49341;BME280;35209;51.050;13.678;2023-04-29T16:28:26;99980.78;;;11.75;99.95
49341;BME280;35209;51.050;13.678;2023-04-29T16:33:28;99980.53;;;11.83;98.60
49341;BME280;35209;51.050;13.678;2023-04-29T16:38:30;99981.03;;;11.93;97.66
49341;BME280;35209;51.050;13.678;2023-04-29T16:43:32;99985.38;;;11.94;96.78
49341;BME280;35209;51.050;13.678;2023-04-29T16:48:34;99994.56;;;11.82;98.15
49341;BME280;35209;51.050;13.678;2023-04-29T16:53:37;99993.34;;;11.92;96.57
49341;BME280;35209;51.050;13.678;2023-04-29T16:58:38;99998.53;;;11.70;96.92
49341;BME280;35209;51.050;13.678;2023-04-29T17:03:46;100004.94;;;11.88;97.05
49341;BME280;35209;51.050;13.678;2023-04-29T17:08:49;100008.53;;;11.85;98.17
49341;BME280;35209;51.050;13.678;2023-04-29T17:13:52;100019.69;;;11.92;98.41
49341;BME280;35209;51.050;13.678;2023-04-29T17:18:53;100024.22;;;11.89;97.99
49341;BME280;35209;51.050;13.678;2023-04-29T17:23:55;100028.13;;;12.02;96.96
49341;BME280;35209;51.050;13.678;2023-04-29T17:28:57;100034.34;;;11.99;98.47
49341;BME280;35209;51.050;13.678;2023-04-29T17:33:59;100041.22;;;12.03;96.95
49341;BME280;35209;51.050;13.678;2023-04-29T17:39:18;100042.78;;;12.09;95.53
49341;BME280;35209;51.050;13.678;2023-04-29T17:44:20;100045.91;;;11.95;96.42
49341;BME280;35209;51.050;13.678;2023-04-29T17:49:24;100065.66;;;11.83;98.88
49341;BME280;35209;51.050;13.678;2023-04-29T17:54:27;100065.75;;;11.80;99.56
49341;BME280;35209;51.050;13.678;2023-04-29T17:59:29;100074.19;;;11.90;98.00
49341;BME280;35209;51.050;13.678;2023-04-29T18:04:31;100071.19;;;12.01;96.67
49341;BME280;35209;51.050;13.678;2023-04-29T18:09:33;100085.59;;;11.91;97.50
49341;BME280;35209;51.050;13.678;2023-04-29T18:14:35;100081.28;;;11.63;100.00
49341;BME280;35209;51.050;13.678;2023-04-29T18:19:37;100086.78;;;11.57;100.00
49341;BME280;35209;51.050;13.678;2023-04-29T18:24:38;100087.31;;;11.67;100.00
49341;BME280;35209;51.050;13.678;2023-04-29T18:29:40;100086.28;;;11.71;99.61
49341;BME280;35209;51.050;13.678;2023-04-29T18:34:42;100092.50;;;11.68;99.72
49341;BME280;35209;51.050;13.678;2023-04-29T18:39:43;100102.56;;;11.57;100.00
49341;BME280;35209;51.050;13.678;2023-04-29T18:44:45;100107.94;;;11.54;100.00
49341;BME280;35209;51.050;13.678;2023-04-29T18:49:48;100112.75;;;11.41;100.00
49341;BME280;35209;51.050;13.678;2023-04-29T18:54:50;100115.34;;;11.68;98.39
49341;BME280;35209;51.050;13.678;2023-04-29T18:59:52;100135.63;;;11.66;97.90
49341;BME280;35209;51.050;13.678;2023-04-29T19:04:54;100137.88;;;11.51;98.17
49341;BME280;35209;51.050;13.678;2023-04-29T19:09:56;100150.69;;;11.35;100.00
49341;BME280;35209;51.050;13.678;2023-04-29T19:14:58;100156.47;;;11.47;98.74
49341;BME280;35209;51.050;13.678;2023-04-29T19:20:00;100155.94;;;11.62;96.92
49341;BME280;35209;51.050;13.678;2023-04-29T19:25:03;100161.66;;;11.48;96.93
49341;BME280;35209;51.050;13.678;2023-04-29T19:30:06;100168.22;;;11.61;96.28
49341;BME280;35209;51.050;13.678;2023-04-29T19:35:08;100168.69;;;11.48;96.81
49341;BME280;35209;51.050;13.678;2023-04-29T19:40:10;100174.75;;;11.50;96.67
49341;BME280;35209;51.050;13.678;2023-04-29T19:45:12;100178.00;;;11.58;96.22
49341;BME280;35209;51.050;13.678;2023-04-29T19:50:14;100184.19;;;11.57;96.41
49341;BME280;35209;51.050;13.678;2023-04-29T19:55:16;100181.00;;;11.47;96.69
49341;BME280;35209;51.050;13.678;2023-04-29T20:00:18;100185.25;;;11.51;96.89
49341;BME280;35209;51.050;13.678;2023-04-29T20:05:19;100187.13;;;11.48;97.15
49341;BME280;35209;51.050;13.678;2023-04-29T20:10:21;100187.16;;;11.46;98.16
49341;BME280;35209;51.050;13.678;2023-04-29T20:15:23;100189.91;;;11.43;98.09
49341;BME280;35209;51.050;13.678;2023-04-29T20:20:25;100181.31;;;11.38;98.46
49341;BME280;35209;51.050;13.678;2023-04-29T20:25:27;100186.75;;;11.32;98.56
49341;BME280;35209;51.050;13.678;2023-04-29T20:30:29;100194.78;;;11.29;98.14
49341;BME280;35209;51.050;13.678;2023-04-29T20:35:30;100205.88;;;11.37;97.63
49341;BME280;35209;51.050;13.678;2023-04-29T20:40:33;100191.63;;;11.44;95.56
49341;BME280;35209;51.050;13.678;2023-04-29T20:45:37;100196.66;;;11.52;95.10
49341;BME280;35209;51.050;13.678;2023-04-29T20:50:39;100192.53;;;11.15;98.27
49341;BME280;35209;51.050;13.678;2023-04-29T20:55:40;100197.56;;;11.23;97.09
49341;BME280;35209;51.050;13.678;2023-04-29T21:00:42;100197.50;;;11.24;96.37
49341;BME280;35209;51.050;13.678;2023-04-29T21:05:44;100203.09;;;11.42;93.99
49341;BME280;35209;51.050;13.678;2023-04-29T21:10:46;100201.91;;;11.25;94.80
49341;BME280;35209;51.050;13.678;2023-04-29T21:15:47;100206.16;;;11.29;93.92
49341;BME280;35209;51.050;13.678;2023-04-29T21:20:49;100200.78;;;11.04;96.63
49341;BME280;35209;51.050;13.678;2023-04-29T21:25:51;100212.16;;;11.33;94.20
49341;BME280;35209;51.050;13.678;2023-04-29T21:30:53;100212.78;;;11.41;92.01
49341;BME280;35209;51.050;13.678;2023-04-29T21:35:55;100208.56;;;11.35;91.70
49341;BME280;35209;51.050;13.678;2023-04-29T21:40:58;100214.94;;;11.00;95.00
49341;BME280;35209;51.050;13.678;2023-04-29T21:45:59;100219.34;;;11.00;95.27
49341;BME280;35209;51.050;13.678;2023-04-29T21:51:01;100217.69;;;11.25;92.54
49341;BME280;35209;51.050;13.678;2023-04-29T21:56:05;100229.16;;;11.23;92.44
49341;BME280;35209;51.050;13.678;2023-04-29T22:01:07;100229.09;;;11.24;92.01
49341;BME280;35209;51.050;13.678;2023-04-29T22:06:40;100230.78;;;11.27;92.03
49341;BME280;35209;51.050;13.678;2023-04-29T22:11:42;100233.78;;;11.15;92.74
49341;BME280;35209;51.050;13.678;2023-04-29T22:16:44;100232.84;;;10.88;94.46
49341;BME280;35209;51.050;13.678;2023-04-29T22:21:46;100237.56;;;11.06;93.26
49341;BME280;35209;51.050;13.678;2023-04-29T22:26:48;100235.28;;;10.95;94.14
49341;BME280;35209;51.050;13.678;2023-04-29T22:31:49;100241.22;;;10.71;96.02
49341;BME280;35209;51.050;13.678;2023-04-29T22:36:51;100246.41;;;10.74;95.88
49341;BME280;35209;51.050;13.678;2023-04-29T22:41:53;100251.09;;;10.94;94.59
49341;BME280;35209;51.050;13.678;2023-04-29T22:46:54;100242.06;;;11.02;93.25
49341;BME280;35209;51.050;13.678;2023-04-29T22:51:56;100245.22;;;10.85;94.03
49341;BME280;35209;51.050;13.678;2023-04-29T22:56:58;100246.06;;;10.86;94.34
49341;BME280;35209;51.050;13.678;2023-04-29T23:02:00;100242.88;;;11.04;92.65
49341;BME280;35209;51.050;13.678;2023-04-29T23:07:02;100247.72;;;10.89;94.09
49341;BME280;35209;51.050;13.678;2023-04-29T23:12:03;100254.03;;;10.83;94.17
49341;BME280;35209;51.050;13.678;2023-04-29T23:17:05;100257.72;;;10.77;94.59
49341;BME280;35209;51.050;13.678;2023-04-29T23:22:07;100246.56;;;10.69;95.29
49341;BME280;35209;51.050;13.678;2023-04-29T23:27:09;100253.38;;;10.76;94.87
49341;BME280;35209;51.050;13.678;2023-04-29T23:32:11;100247.84;;;10.84;93.38
49341;BME280;35209;51.050;13.678;2023-04-29T23:37:13;100256.94;;;10.74;93.95
49341;BME280;35209;51.050;13.678;2023-04-29T23:42:15;100258.22;;;10.90;92.30
49341;BME280;35209;51.050;13.678;2023-04-29T23:47:16;100256.75;;;10.80;93.54
49341;BME280;35209;51.050;13.678;2023-04-29T23:52:18;100256.00;;;10.76;93.24
49341;BME280;35209;51.050;13.678;2023-04-29T23:57:20;100259.63;;;10.72;93.49
